createdAt,value
2022-10-02T00:00:24.985Z,92.58
2022-10-02T00:03:40.709Z,92.52
2022-10-02T00:06:41.117Z,92.35
2022-10-02T00:09:38.728Z,92.43
2022-10-02T00:12:32.823Z,92.40
2022-10-02T00:15:28.041Z,92.32
2022-10-02T00:18:17.090Z,92.51
2022-10-02T00:21:22.531Z,92.46
2022-10-02T00:24:20.117Z,92.72
2022-10-02T00:27:19.269Z,92.87
2022-10-02T00:30:16.677Z,92.60
2022-10-02T00:33:22.156Z,92.51
2022-10-02T00:36:24.036Z,92.41
2022-10-02T00:39:29.561Z,92.71
2022-10-02T00:43:11.257Z,92.46
2022-10-02T00:46:19.218Z,92.51
2022-10-02T00:49:34.813Z,92.72
2022-10-02T00:52:43.107Z,92.26
2022-10-02T00:55:55.006Z,92.67
2022-10-02T00:59:01.292Z,92.73
2022-10-02T01:01:58.502Z,92.86
2022-10-02T01:04:50.554Z,92.87
2022-10-02T01:07:46.303Z,93.13
2022-10-02T01:10:40.703Z,93.06
2022-10-02T01:13:33.640Z,93.07
2022-10-02T01:16:24.448Z,93.25
2022-10-02T01:19:27.136Z,93.18
2022-10-02T01:22:28.127Z,93.09
2022-10-02T01:25:19.283Z,93.43
2022-10-02T01:28:11.866Z,93.49
2022-10-02T01:31:07.732Z,93.50
2022-10-02T01:34:00.023Z,93.47
2022-10-02T01:36:52.175Z,93.64
2022-10-02T01:39:44.833Z,93.82
2022-10-02T01:42:37.195Z,94.06
2022-10-02T01:45:43.692Z,94.40
2022-10-02T01:48:46.664Z,94.57
2022-10-02T01:51:50.454Z,94.69
2022-10-02T01:54:57.906Z,94.83
2022-10-02T01:58:00.902Z,94.75
2022-10-02T02:01:10.442Z,94.79
2022-10-02T02:04:12.821Z,94.70
2022-10-02T02:07:13.984Z,94.86
2022-10-02T02:10:14.687Z,94.90
2022-10-02T02:13:05.177Z,94.84
2022-10-02T02:16:05.146Z,94.57
2022-10-02T02:19:06.755Z,94.52
2022-10-02T02:22:02.335Z,94.56
2022-10-02T02:24:59.387Z,94.62
2022-10-02T02:27:44.192Z,94.66
2022-10-02T02:30:37.619Z,94.31
2022-10-02T02:33:37.856Z,94.17
2022-10-02T02:36:37.874Z,94.08
2022-10-02T02:39:35.502Z,94.01
2022-10-02T02:42:31.856Z,93.59
2022-10-02T02:45:26.642Z,93.53
2022-10-02T02:48:22.497Z,93.62
2022-10-02T02:51:19.501Z,93.58
2022-10-02T02:54:16.891Z,93.41
2022-10-02T02:57:12.521Z,93.44
2022-10-02T03:00:06.730Z,93.30
2022-10-02T03:02:58.792Z,93.20
2022-10-02T03:05:54.335Z,93.35
2022-10-02T03:08:48.411Z,93.18
2022-10-02T03:11:53.825Z,93.45
2022-10-02T03:15:04.047Z,93.17
2022-10-02T03:18:16.410Z,93.28
2022-10-02T03:21:15.809Z,93.49
2022-10-02T03:24:17.711Z,93.74
2022-10-02T03:27:13.589Z,93.53
2022-10-02T03:30:09.762Z,93.17
2022-10-02T03:33:03.437Z,92.96
2022-10-02T03:35:56.964Z,93.02
2022-10-02T03:39:00.722Z,92.93
2022-10-02T03:41:58.478Z,93.04
2022-10-02T03:44:50.506Z,92.92
2022-10-02T03:47:42.520Z,93.03
2022-10-02T03:50:36.548Z,93.49
2022-10-02T03:53:35.142Z,93.42
2022-10-02T03:56:41.452Z,93.44
2022-10-02T03:59:42.828Z,93.48
2022-10-02T04:02:39.543Z,93.55
2022-10-02T04:05:37.928Z,93.54
2022-10-02T04:08:33.607Z,93.64
2022-10-02T04:11:33.151Z,93.72
2022-10-02T04:14:30.434Z,93.52
2022-10-02T04:17:26.477Z,93.57
2022-10-02T04:20:23.964Z,93.38
2022-10-02T04:23:21.632Z,93.41
2022-10-02T04:26:20.288Z,93.42
2022-10-02T04:29:14.617Z,93.70
2022-10-02T04:32:15.603Z,93.51
2022-10-02T04:35:16.085Z,93.40
2022-10-02T04:38:30.265Z,93.33
2022-10-02T04:41:38.336Z,93.13
2022-10-02T04:44:44.394Z,93.06
2022-10-02T04:48:07.762Z,93.04
2022-10-02T04:50:59.112Z,92.60
2022-10-02T04:53:46.809Z,92.61
2022-10-02T04:57:03.100Z,92.31
2022-10-02T05:00:07.374Z,92.65
2022-10-02T05:03:10.770Z,92.67
2022-10-02T05:06:15.361Z,92.47
2022-10-02T05:09:17.381Z,92.42
2022-10-02T05:12:24.094Z,92.49
2022-10-02T05:15:33.630Z,92.30
2022-10-02T05:18:45.166Z,92.29
2022-10-02T05:21:40.834Z,92.12
2022-10-02T05:24:46.177Z,91.80
2022-10-02T05:28:00.126Z,91.75
2022-10-02T05:30:57.224Z,91.65
2022-10-02T05:33:58.239Z,91.61
2022-10-02T05:37:06.877Z,91.51
2022-10-02T05:40:09.392Z,91.57
2022-10-02T05:43:08.938Z,91.76
2022-10-02T05:46:03.845Z,91.72
2022-10-02T05:49:01.667Z,91.60
2022-10-02T05:52:00.419Z,91.48
2022-10-02T05:54:57.990Z,91.28
2022-10-02T05:57:41.594Z,91.31
2022-10-02T06:00:40.109Z,91.48
2022-10-02T06:03:43.649Z,91.64
2022-10-02T06:06:41.258Z,91.43
2022-10-02T06:09:37.930Z,91.67
2022-10-02T06:12:36.535Z,91.96
2022-10-02T06:15:34.323Z,92.37
2022-10-02T06:18:31.583Z,93.01
2022-10-02T06:21:29.445Z,92.99
2022-10-02T06:24:27.758Z,92.76
2022-10-02T06:27:26.447Z,92.76
2022-10-02T06:30:14.524Z,92.62
2022-10-02T06:33:00.228Z,92.65
2022-10-02T06:35:59.895Z,92.48
2022-10-02T06:38:45.505Z,92.16
2022-10-02T06:41:26.946Z,92.13
2022-10-02T06:44:26.678Z,91.77
2022-10-02T06:47:35.047Z,91.69
2022-10-02T06:50:41.158Z,91.49
2022-10-02T06:53:41.976Z,91.36
2022-10-02T06:56:46.827Z,91.16
2022-10-02T06:59:47.595Z,90.97
2022-10-02T07:02:59.434Z,90.84
2022-10-02T07:06:21.951Z,90.60
2022-10-02T07:09:45.889Z,90.10
2022-10-02T07:12:55.034Z,89.51
2022-10-02T07:15:49.630Z,89.38
2022-10-02T07:18:45.681Z,88.74
2022-10-02T07:21:41.762Z,88.72
2022-10-02T07:24:52.352Z,88.13
2022-10-02T07:27:53.162Z,87.87
2022-10-02T07:30:56.109Z,87.25
2022-10-02T07:33:53.997Z,87.18
2022-10-02T07:36:50.823Z,87.00
2022-10-02T07:39:56.625Z,85.81
2022-10-02T07:42:56.559Z,86.04
2022-10-02T07:45:45.067Z,85.15
2022-10-02T07:48:53.700Z,84.62
2022-10-02T07:51:50.150Z,84.97
2022-10-02T07:55:07.416Z,85.15
2022-10-02T07:58:06.283Z,84.00
2022-10-02T08:00:43.696Z,83.23
2022-10-02T08:03:41.133Z,82.31
2022-10-02T08:06:35.331Z,80.87
2022-10-02T08:09:12.387Z,79.22
2022-10-02T08:12:00.973Z,78.15
2022-10-02T08:14:56.204Z,76.88
2022-10-02T08:17:46.163Z,77.34
2022-10-02T08:20:34.139Z,77.92
2022-10-02T08:23:29.351Z,76.92
2022-10-02T08:26:07.153Z,76.23
2022-10-02T08:28:48.447Z,75.98
2022-10-02T08:31:40.537Z,75.48
2022-10-02T08:34:20.978Z,74.58
2022-10-02T08:37:32.415Z,73.15
2022-10-02T08:41:04.982Z,71.17
2022-10-02T08:44:36.487Z,70.50
2022-10-02T08:48:11.313Z,69.57
2022-10-02T08:51:39.324Z,68.59
2022-10-02T08:54:58.797Z,67.95
2022-10-02T08:58:28.583Z,68.85
2022-10-02T09:01:40.136Z,68.53
2022-10-02T09:05:09.802Z,69.27
2022-10-02T09:08:29.354Z,67.51
2022-10-02T09:11:48.625Z,67.03
2022-10-02T09:14:55.596Z,67.85
2022-10-02T09:18:00.618Z,68.95
2022-10-02T09:21:15.074Z,70.31
2022-10-02T09:24:34.315Z,71.48
2022-10-02T09:27:45.924Z,71.31
2022-10-02T09:30:50.421Z,70.92
2022-10-02T09:34:09.413Z,70.61
2022-10-02T09:37:28.394Z,69.76
2022-10-02T09:40:43.318Z,70.70
2022-10-02T09:44:06.412Z,71.30
2022-10-02T09:47:40.988Z,71.88
2022-10-02T09:51:10.012Z,72.50
2022-10-02T09:54:26.665Z,72.89
2022-10-02T09:58:07.236Z,72.46
2022-10-02T10:01:37.958Z,71.80
2022-10-02T10:05:07.366Z,71.93
2022-10-02T10:08:25.760Z,72.63
2022-10-02T10:11:47.850Z,70.54
2022-10-02T10:15:10.451Z,67.60
2022-10-02T10:18:39.495Z,65.86
2022-10-02T10:22:22.310Z,64.70
2022-10-02T10:25:11.938Z,63.01
2022-10-02T10:28:22.399Z,62.96
2022-10-02T10:31:31.253Z,63.44
2022-10-02T10:35:00.428Z,63.71
2022-10-02T10:38:12.116Z,64.60
2022-10-02T10:41:04.614Z,65.58
2022-10-02T10:44:20.183Z,65.71
2022-10-02T10:47:22.073Z,65.28
2022-10-02T10:50:38.683Z,65.34
2022-10-02T10:53:50.054Z,64.69
2022-10-02T10:56:37.201Z,64.88
2022-10-02T11:00:03.193Z,65.74
2022-10-02T11:03:31.915Z,67.01
2022-10-02T11:06:35.997Z,69.88
2022-10-02T11:09:55.759Z,72.57
2022-10-02T11:13:06.551Z,75.36
2022-10-02T11:16:26.067Z,76.99
2022-10-02T11:19:41.226Z,78.12
2022-10-02T11:22:45.573Z,78.43
2022-10-02T11:25:46.474Z,78.29
2022-10-02T11:28:48.528Z,77.87
2022-10-02T11:31:47.216Z,76.56
2022-10-02T11:35:18.562Z,75.54
2022-10-02T11:38:38.631Z,76.70
2022-10-02T11:41:49.459Z,75.94
2022-10-02T11:44:52.564Z,76.38
2022-10-02T11:48:12.459Z,75.38
2022-10-02T11:51:29.210Z,75.03
2022-10-02T11:54:38.462Z,73.57
2022-10-02T11:57:41.426Z,71.54
2022-10-02T12:00:58.818Z,70.89
2022-10-02T12:04:04.245Z,68.93
2022-10-02T12:07:13.714Z,67.91
2022-10-02T12:10:33.246Z,68.40
2022-10-02T12:13:47.208Z,68.87
2022-10-02T12:16:57.050Z,69.48
2022-10-02T12:20:24.711Z,67.44
2022-10-02T12:23:46.663Z,66.05
2022-10-02T12:27:04.179Z,66.29
2022-10-02T12:30:06.384Z,66.76
2022-10-02T12:33:30.683Z,67.41
2022-10-02T12:36:39.701Z,67.08
2022-10-02T12:39:50.823Z,67.66
2022-10-02T12:42:47.119Z,67.44
2022-10-02T12:45:58.851Z,68.35
2022-10-02T12:49:13.789Z,69.49
2022-10-02T12:52:39.358Z,69.04
2022-10-02T12:56:13.692Z,67.62
2022-10-02T12:59:16.134Z,69.01
2022-10-02T13:02:59.661Z,69.67
2022-10-02T13:06:21.284Z,70.16
2022-10-02T13:09:29.866Z,70.59
2022-10-02T13:12:41.340Z,71.28
2022-10-02T13:15:40.162Z,71.59
2022-10-02T13:18:45.082Z,71.93
2022-10-02T13:21:36.089Z,72.54
2022-10-02T13:24:48.593Z,73.77
2022-10-02T13:27:50.001Z,77.20
2022-10-02T13:30:52.498Z,76.56
2022-10-02T13:34:07.856Z,75.85
2022-10-02T13:37:15.532Z,77.83
2022-10-02T13:40:21.687Z,79.27
2022-10-02T13:43:34.877Z,80.60
2022-10-02T13:46:45.820Z,81.99
2022-10-02T13:49:30.414Z,83.01
2022-10-02T13:52:33.772Z,83.55
2022-10-02T13:55:27.843Z,84.32
2022-10-02T13:58:38.900Z,84.66
2022-10-02T14:01:44.815Z,85.55
2022-10-02T14:04:50.599Z,86.58
2022-10-02T14:08:09.211Z,86.82
2022-10-02T14:11:15.941Z,86.89
2022-10-02T14:14:26.490Z,87.53
2022-10-02T14:17:34.573Z,87.71
2022-10-02T14:20:44.671Z,87.51
2022-10-02T14:23:53.959Z,88.05
2022-10-02T14:27:03.682Z,87.15
2022-10-02T14:30:03.957Z,84.84
2022-10-02T14:33:03.477Z,82.64
2022-10-02T14:36:03.514Z,82.85
2022-10-02T14:39:11.873Z,82.87
2022-10-02T14:42:23.827Z,82.64
2022-10-02T14:45:31.037Z,81.93
2022-10-02T14:48:36.436Z,81.41
2022-10-02T14:51:41.799Z,80.00
2022-10-02T14:55:04.962Z,79.13
2022-10-02T14:58:25.979Z,80.73
2022-10-02T15:01:23.426Z,79.71
2022-10-02T15:04:29.573Z,79.80
2022-10-02T15:07:26.917Z,79.83
2022-10-02T15:10:23.518Z,79.26
2022-10-02T15:13:28.796Z,78.85
2022-10-02T15:16:52.621Z,78.86
2022-10-02T15:19:55.967Z,79.71
2022-10-02T15:23:00.544Z,78.59
2022-10-02T15:26:09.746Z,78.32
2022-10-02T15:29:14.361Z,77.27
2022-10-02T15:32:37.068Z,77.02
2022-10-02T15:35:49.172Z,75.99
2022-10-02T15:39:03.689Z,75.90
2022-10-02T15:41:49.647Z,76.06
2022-10-02T15:45:02.238Z,78.64
2022-10-02T15:47:57.313Z,80.36
2022-10-02T15:50:58.932Z,81.03
2022-10-02T15:54:00.700Z,81.63
2022-10-02T15:57:07.342Z,82.50
2022-10-02T16:00:11.419Z,82.69
2022-10-02T16:02:58.402Z,82.57
2022-10-02T16:05:43.832Z,84.30
2022-10-02T16:08:41.911Z,83.69
2022-10-02T16:11:32.103Z,84.95
2022-10-02T16:14:13.918Z,85.55
2022-10-02T16:17:14.644Z,84.66
2022-10-02T16:20:03.917Z,85.07
2022-10-02T16:22:55.682Z,85.80
2022-10-02T16:25:38.135Z,85.29
2022-10-02T16:28:20.599Z,85.92
2022-10-02T16:31:13.550Z,86.58
2022-10-02T16:33:59.069Z,87.13
2022-10-02T16:36:41.490Z,87.50
2022-10-02T16:39:31.936Z,87.63
2022-10-02T16:42:14.700Z,87.44
2022-10-02T16:45:04.553Z,87.57
2022-10-02T16:47:44.761Z,88.12
2022-10-02T16:50:24.866Z,87.90
2022-10-02T16:53:02.397Z,88.28
2022-10-02T16:55:39.022Z,88.34
2022-10-02T16:58:25.635Z,88.59
2022-10-02T17:01:02.179Z,89.12
2022-10-02T17:03:38.843Z,89.45
2022-10-02T17:06:20.613Z,89.69
2022-10-02T17:09:06.579Z,89.78
2022-10-02T17:11:48.648Z,89.78
2022-10-02T17:14:25.483Z,89.91
2022-10-02T17:17:03.758Z,89.93
2022-10-02T17:19:45.887Z,89.81
2022-10-02T17:22:33.292Z,90.19
2022-10-02T17:25:16.102Z,90.51
2022-10-02T17:27:54.260Z,90.74
2022-10-02T17:30:29.021Z,90.83
2022-10-02T17:33:16.331Z,91.15
2022-10-02T17:35:56.404Z,91.18
2022-10-02T17:38:59.979Z,90.86
2022-10-02T17:41:46.443Z,91.24
2022-10-02T17:44:26.304Z,91.46
2022-10-02T17:47:36.201Z,91.37
2022-10-02T17:50:26.912Z,91.03
2022-10-02T17:53:31.558Z,91.68
2022-10-02T17:56:30.901Z,91.51
2022-10-02T17:59:21.005Z,91.03
2022-10-02T18:02:02.204Z,90.80
2022-10-02T18:04:46.268Z,91.06
2022-10-02T18:07:36.779Z,91.24
2022-10-02T18:10:19.737Z,91.32
2022-10-02T18:13:18.440Z,91.49
2022-10-02T18:16:23.034Z,91.54
2022-10-02T18:19:16.120Z,91.39
2022-10-02T18:21:59.209Z,91.48
2022-10-02T18:24:46.495Z,91.24
2022-10-02T18:27:37.121Z,91.01
2022-10-02T18:30:17.491Z,91.02
2022-10-02T18:33:25.802Z,91.29
2022-10-02T18:36:12.913Z,91.05
2022-10-02T18:38:56.112Z,91.31
2022-10-02T18:41:44.832Z,91.02
2022-10-02T18:44:36.023Z,91.28
2022-10-02T18:47:17.479Z,90.99
2022-10-02T18:50:05.703Z,90.79
2022-10-02T18:52:49.982Z,91.11
2022-10-02T18:55:41.046Z,91.20
2022-10-02T18:58:24.575Z,91.10
2022-10-02T19:01:19.315Z,91.41
2022-10-02T19:04:08.800Z,91.22
2022-10-02T19:06:52.408Z,91.77
2022-10-02T19:09:28.483Z,91.63
2022-10-02T19:12:05.230Z,91.66
2022-10-02T19:14:42.536Z,91.71
2022-10-02T19:17:18.547Z,91.88
2022-10-02T19:19:50.515Z,91.80
2022-10-02T19:22:25.957Z,91.53
2022-10-02T19:25:05.207Z,91.73
2022-10-02T19:27:38.695Z,91.42
2022-10-02T19:30:25.526Z,91.48
2022-10-02T19:33:00.051Z,91.22
2022-10-02T19:35:34.617Z,90.98
2022-10-02T19:38:20.573Z,91.29
2022-10-02T19:40:58.071Z,90.97
2022-10-02T19:43:33.856Z,90.91
2022-10-02T19:46:10.849Z,90.96
2022-10-02T19:48:46.729Z,91.25
2022-10-02T19:51:22.626Z,91.00
2022-10-02T19:54:01.397Z,91.06
2022-10-02T19:56:39.834Z,91.39
2022-10-02T19:59:18.594Z,91.48
2022-10-02T20:02:20.225Z,91.77
2022-10-02T20:04:53.960Z,91.82
2022-10-02T20:07:29.863Z,91.62
2022-10-02T20:10:05.997Z,91.73
2022-10-02T20:12:41.916Z,91.61
2022-10-02T20:15:18.563Z,91.66
2022-10-02T20:17:50.349Z,91.75
2022-10-02T20:20:22.402Z,91.39
2022-10-02T20:22:58.950Z,91.29
2022-10-02T20:25:35.681Z,90.85
2022-10-02T20:28:18.324Z,90.93
2022-10-02T20:30:54.176Z,90.73
2022-10-02T20:33:32.489Z,90.31
2022-10-02T20:36:14.291Z,90.52
2022-10-02T20:38:49.015Z,90.72
2022-10-02T20:41:24.885Z,91.17
2022-10-02T20:44:03.185Z,91.03
2022-10-02T20:46:53.135Z,91.42
2022-10-02T20:49:52.868Z,91.46
2022-10-02T20:53:05.597Z,91.54
2022-10-02T20:55:43.466Z,92.10
2022-10-02T20:58:48.269Z,92.10
2022-10-02T21:01:22.503Z,92.19
2022-10-02T21:04:23.533Z,92.59
2022-10-02T21:07:35.134Z,92.49
2022-10-02T21:10:45.552Z,92.87
2022-10-02T21:13:41.599Z,93.03
2022-10-02T21:16:42.237Z,93.28
2022-10-02T21:19:43.514Z,93.43
2022-10-02T21:22:44.621Z,93.22
2022-10-02T21:25:42.829Z,93.28
2022-10-02T21:28:57.916Z,93.31
2022-10-02T21:31:52.966Z,93.58
2022-10-02T21:34:35.299Z,93.53
2022-10-02T21:37:22.386Z,93.31
2022-10-02T21:40:26.429Z,93.27
2022-10-02T21:43:30.476Z,93.14
2022-10-02T21:46:35.976Z,93.14
2022-10-02T21:49:41.958Z,93.15
2022-10-02T21:52:43.850Z,92.89
2022-10-02T21:55:42.724Z,93.15
2022-10-02T21:58:53.866Z,92.99
2022-10-02T22:02:09.951Z,93.09
2022-10-02T22:05:20.391Z,92.82
2022-10-02T22:08:03.316Z,92.99
2022-10-02T22:10:43.320Z,92.87
2022-10-02T22:13:25.428Z,92.95
2022-10-02T22:16:15.263Z,93.09
2022-10-02T22:18:55.696Z,92.70
2022-10-02T22:21:49.588Z,92.85
2022-10-02T22:24:41.673Z,92.99
2022-10-02T22:27:29.755Z,92.91
2022-10-02T22:29:59.958Z,92.95
2022-10-02T22:33:10.308Z,92.93
2022-10-02T22:36:22.163Z,93.21
2022-10-02T22:39:02.380Z,93.12
2022-10-02T22:41:44.335Z,93.28
2022-10-02T22:44:24.745Z,93.59
2022-10-02T22:47:03.123Z,93.87
2022-10-02T22:49:45.599Z,93.75
2022-10-02T22:52:25.360Z,93.76
2022-10-02T22:55:03.149Z,93.75
2022-10-02T22:57:43.415Z,93.98
2022-10-02T23:00:21.034Z,93.94
2022-10-02T23:02:59.584Z,94.16
2022-10-02T23:05:37.974Z,94.33
2022-10-02T23:08:33.095Z,94.56
2022-10-02T23:11:14.616Z,94.36
2022-10-02T23:13:49.991Z,94.16
2022-10-02T23:16:29.268Z,93.97
2022-10-02T23:19:10.279Z,93.61
2022-10-02T23:21:50.579Z,93.24
2022-10-02T23:24:29.404Z,92.62
2022-10-02T23:27:12.899Z,92.02
2022-10-02T23:29:55.108Z,92.46
2022-10-02T23:32:36.092Z,92.02
2022-10-02T23:35:14.775Z,92.20
2022-10-02T23:37:54.098Z,92.15
2022-10-02T23:40:44.026Z,92.02
2022-10-02T23:43:21.821Z,91.78
2022-10-02T23:46:02.054Z,91.59
2022-10-02T23:48:34.693Z,91.37
2022-10-02T23:51:16.551Z,91.14
2022-10-02T23:54:16.136Z,91.19
2022-10-02T23:57:14.890Z,91.10
